Terminal Aerodrome Forecast
Issued by NWS Cleveland, OH

Home | Current Version | Previous Version | Graphics & Text | Print | Product List | Glossary On
Versions: 1 2 3 4 5 6 7 8 9 10 11 12 13 14 15 16 17 18 19 20
000
FTUS41 KCLE 221020 AAA
TAFERI
TAF AMD
KERI 221020Z 2210/2306 VRB04KT P6SM OVC035
      TEMPO 2210/2212 BKN025
     FM221200 20007KT P6SM OVC025
      TEMPO 2212/2216 5SM BR OVC012
     FM230200 17006KT 5SM BR OVC015=

USA.gov is the U.S. government's official web portal to all federal, state and local government web resources and services.